sensor_id;sensor_type;location;lat;lon;timestamp;temperature;humidity
24636;DHT22;12772;49.794;10.024;2023-11-19T00:02:08;9.20;76.70
24636;DHT22;12772;49.794;10.024;2023-11-19T00:06:11;9.20;76.90
24636;DHT22;12772;49.794;10.024;2023-11-19T00:10:14;9.00;76.80
24636;DHT22;12772;49.794;10.024;2023-11-19T00:14:19;9.30;76.80
24636;DHT22;12772;49.794;10.024;2023-11-19T00:18:21;8.90;76.40
24636;DHT22;12772;49.794;10.024;2023-11-19T00:22:23;8.80;76.40
24636;DHT22;12772;49.794;10.024;2023-11-19T00:26:26;9.30;76.90
24636;DHT22;12772;49.794;10.024;2023-11-19T00:30:28;9.30;76.80
24636;DHT22;12772;49.794;10.024;2023-11-19T00:34:32;9.10;76.70
24636;DHT22;12772;49.794;10.024;2023-11-19T00:38:34;9.40;76.80
24636;DHT22;12772;49.794;10.024;2023-11-19T00:42:36;9.40;77.30
24636;DHT22;12772;49.794;10.024;2023-11-19T00:46:38;9.40;77.00
24636;DHT22;12772;49.794;10.024;2023-11-19T00:50:41;9.40;77.00
24636;DHT22;12772;49.794;10.024;2023-11-19T00:54:46;9.20;76.80
24636;DHT22;12772;49.794;10.024;2023-11-19T00:58:48;9.10;76.70
24636;DHT22;12772;49.794;10.024;2023-11-19T01:02:50;9.40;77.20
24636;DHT22;12772;49.794;10.024;2023-11-19T01:06:52;9.50;77.40
24636;DHT22;12772;49.794;10.024;2023-11-19T01:10:55;9.10;77.20
24636;DHT22;12772;49.794;10.024;2023-11-19T01:14:57;9.30;77.40
24636;DHT22;12772;49.794;10.024;2023-11-19T01:18:59;9.20;77.60
24636;DHT22;12772;49.794;10.024;2023-11-19T01:23:05;9.20;78.00
24636;DHT22;12772;49.794;10.024;2023-11-19T01:27:07;9.60;78.80
24636;DHT22;12772;49.794;10.024;2023-11-19T01:31:09;9.60;79.30
24636;DHT22;12772;49.794;10.024;2023-11-19T01:35:11;9.40;79.40
24636;DHT22;12772;49.794;10.024;2023-11-19T01:39:13;9.60;79.80
24636;DHT22;12772;49.794;10.024;2023-11-19T01:43:36;9.30;79.50
24636;DHT22;12772;49.794;10.024;2023-11-19T01:47:39;9.30;79.50
24636;DHT22;12772;49.794;10.024;2023-11-19T01:51:41;9.70;79.80
24636;DHT22;12772;49.794;10.024;2023-11-19T01:55:46;9.30;79.50
24636;DHT22;12772;49.794;10.024;2023-11-19T01:59:50;10.00;79.20
24636;DHT22;12772;49.794;10.024;2023-11-19T02:03:53;9.90;80.00
24636;DHT22;12772;49.794;10.024;2023-11-19T02:07:54;9.40;79.60
24636;DHT22;12772;49.794;10.024;2023-11-19T02:11:56;9.50;79.70
24636;DHT22;12772;49.794;10.024;2023-11-19T02:15:58;9.80;79.90
24636;DHT22;12772;49.794;10.024;2023-11-19T02:20:03;9.40;79.70
24636;DHT22;12772;49.794;10.024;2023-11-19T02:24:09;10.00;79.60
24636;DHT22;12772;49.794;10.024;2023-11-19T02:28:13;9.60;80.30
24636;DHT22;12772;49.794;10.024;2023-11-19T02:32:17;9.70;80.50
24636;DHT22;12772;49.794;10.024;2023-11-19T02:36:19;9.80;80.70
24636;DHT22;12772;49.794;10.024;2023-11-19T02:40:22;10.00;80.10
24636;DHT22;12772;49.794;10.024;2023-11-19T02:44:25;10.00;80.10
24636;DHT22;12772;49.794;10.024;2023-11-19T02:48:29;10.00;80.20
24636;DHT22;12772;49.794;10.024;2023-11-19T02:52:31;10.00;80.60
24636;DHT22;12772;49.794;10.024;2023-11-19T02:56:42;9.70;81.10
24636;DHT22;12772;49.794;10.024;2023-11-19T03:00:44;10.10;80.40
24636;DHT22;12772;49.794;10.024;2023-11-19T03:04:52;9.80;80.70
24636;DHT22;12772;49.794;10.024;2023-11-19T03:08:55;10.20;79.90
24636;DHT22;12772;49.794;10.024;2023-11-19T03:12:57;9.90;80.40
24636;DHT22;12772;49.794;10.024;2023-11-19T03:17:00;10.20;80.10
24636;DHT22;12772;49.794;10.024;2023-11-19T03:21:02;10.20;79.80
24636;DHT22;12772;49.794;10.024;2023-11-19T03:25:04;10.30;79.90
24636;DHT22;12772;49.794;10.024;2023-11-19T03:29:08;10.20;79.90
24636;DHT22;12772;49.794;10.024;2023-11-19T03:33:10;10.30;80.00
24636;DHT22;12772;49.794;10.024;2023-11-19T03:37:12;10.30;79.90
24636;DHT22;12772;49.794;10.024;2023-11-19T03:41:17;10.00;79.70
24636;DHT22;12772;49.794;10.024;2023-11-19T03:45:19;10.40;80.00
24636;DHT22;12772;49.794;10.024;2023-11-19T03:49:21;10.00;79.50
24636;DHT22;12772;49.794;10.024;2023-11-19T03:53:24;10.50;79.80
24636;DHT22;12772;49.794;10.024;2023-11-19T03:57:27;10.50;79.80
24636;DHT22;12772;49.794;10.024;2023-11-19T04:01:29;10.50;80.00
24636;DHT22;12772;49.794;10.024;2023-11-19T04:05:31;10.60;80.40
24636;DHT22;12772;49.794;10.024;2023-11-19T04:09:33;10.10;80.20
24636;DHT22;12772;49.794;10.024;2023-11-19T04:13:36;10.40;80.90
24636;DHT22;12772;49.794;10.024;2023-11-19T04:17:38;10.20;81.30
24636;DHT22;12772;49.794;10.024;2023-11-19T04:21:41;10.40;82.60
24636;DHT22;12772;49.794;10.024;2023-11-19T04:25:43;10.70;83.00
24636;DHT22;12772;49.794;10.024;2023-11-19T04:29:45;10.50;83.00
24636;DHT22;12772;49.794;10.024;2023-11-19T04:33:47;10.80;83.80
24636;DHT22;12772;49.794;10.024;2023-11-19T04:37:49;10.80;83.90
24636;DHT22;12772;49.794;10.024;2023-11-19T04:41:51;10.70;83.80
24636;DHT22;12772;49.794;10.024;2023-11-19T04:45:53;10.90;84.80
24636;DHT22;12772;49.794;10.024;2023-11-19T04:49:55;10.60;85.30
24636;DHT22;12772;49.794;10.024;2023-11-19T04:53:58;11.00;86.30
24636;DHT22;12772;49.794;10.024;2023-11-19T04:58:00;10.80;86.80
24636;DHT22;12772;49.794;10.024;2023-11-19T05:02:02;11.00;87.20
24636;DHT22;12772;49.794;10.024;2023-11-19T05:06:05;11.20;87.20
24636;DHT22;12772;49.794;10.024;2023-11-19T05:10:07;11.00;87.20
24636;DHT22;12772;49.794;10.024;2023-11-19T05:14:09;11.20;87.60
24636;DHT22;12772;49.794;10.024;2023-11-19T05:18:11;11.40;87.70
24636;DHT22;12772;49.794;10.024;2023-11-19T05:22:13;11.40;87.50
24636;DHT22;12772;49.794;10.024;2023-11-19T05:26:19;11.30;87.60
24636;DHT22;12772;49.794;10.024;2023-11-19T05:30:21;11.00;87.60
24636;DHT22;12772;49.794;10.024;2023-11-19T05:34:23;11.10;88.00
24636;DHT22;12772;49.794;10.024;2023-11-19T05:38:26;11.40;88.30
24636;DHT22;12772;49.794;10.024;2023-11-19T05:42:29;11.40;88.30
24636;DHT22;12772;49.794;10.024;2023-11-19T05:46:31;11.40;88.30
24636;DHT22;12772;49.794;10.024;2023-11-19T05:50:33;11.40;88.30
24636;DHT22;12772;49.794;10.024;2023-11-19T05:54:35;11.40;88.30
24636;DHT22;12772;49.794;10.024;2023-11-19T05:58:38;11.10;88.00
24636;DHT22;12772;49.794;10.024;2023-11-19T06:02:41;11.20;88.10
24636;DHT22;12772;49.794;10.024;2023-11-19T06:06:43;11.50;88.30
24636;DHT22;12772;49.794;10.024;2023-11-19T06:10:45;11.50;88.30
24636;DHT22;12772;49.794;10.024;2023-11-19T06:14:47;11.50;88.30
24636;DHT22;12772;49.794;10.024;2023-11-19T06:18:49;11.60;88.40
24636;DHT22;12772;49.794;10.024;2023-11-19T06:22:51;11.20;88.30
24636;DHT22;12772;49.794;10.024;2023-11-19T06:26:53;11.30;88.20
24636;DHT22;12772;49.794;10.024;2023-11-19T06:30:55;11.20;88.10
24636;DHT22;12772;49.794;10.024;2023-11-19T06:34:58;11.40;88.90
24636;DHT22;12772;49.794;10.024;2023-11-19T06:39:00;11.80;89.20
24636;DHT22;12772;49.794;10.024;2023-11-19T06:43:03;11.70;89.00
24636;DHT22;12772;49.794;10.024;2023-11-19T06:47:05;11.40;88.90
24636;DHT22;12772;49.794;10.024;2023-11-19T06:51:07;11.80;89.60
24636;DHT22;12772;49.794;10.024;2023-11-19T06:55:09;11.80;89.80
24636;DHT22;12772;49.794;10.024;2023-11-19T06:59:12;11.50;89.80
24636;DHT22;12772;49.794;10.024;2023-11-19T07:03:14;11.50;89.90
24636;DHT22;12772;49.794;10.024;2023-11-19T07:07:16;11.90;90.00
24636;DHT22;12772;49.794;10.024;2023-11-19T07:11:18;12.00;89.90
24636;DHT22;12772;49.794;10.024;2023-11-19T07:15:20;11.60;89.70
24636;DHT22;12772;49.794;10.024;2023-11-19T07:19:22;12.00;90.00
24636;DHT22;12772;49.794;10.024;2023-11-19T07:23:24;12.10;90.10
24636;DHT22;12772;49.794;10.024;2023-11-19T07:27:27;11.70;89.70
24636;DHT22;12772;49.794;10.024;2023-11-19T07:31:29;12.20;90.10
24636;DHT22;12772;49.794;10.024;2023-11-19T07:35:32;12.20;90.00
24636;DHT22;12772;49.794;10.024;2023-11-19T07:39:34;12.30;89.70
24636;DHT22;12772;49.794;10.024;2023-11-19T07:43:36;12.30;89.40
24636;DHT22;12772;49.794;10.024;2023-11-19T07:47:38;12.30;89.40
24636;DHT22;12772;49.794;10.024;2023-11-19T07:51:40;12.30;89.80
24636;DHT22;12772;49.794;10.024;2023-11-19T07:55:42;12.40;89.90
24636;DHT22;12772;49.794;10.024;2023-11-19T07:59:45;12.40;89.90
24636;DHT22;12772;49.794;10.024;2023-11-19T08:03:47;12.40;89.90
24636;DHT22;12772;49.794;10.024;2023-11-19T08:07:49;12.50;90.10
24636;DHT22;12772;49.794;10.024;2023-11-19T08:11:51;12.50;90.00
24636;DHT22;12772;49.794;10.024;2023-11-19T08:15:53;12.50;90.10
24636;DHT22;12772;49.794;10.024;2023-11-19T08:19:55;12.50;90.10
24636;DHT22;12772;49.794;10.024;2023-11-19T08:23:56;12.60;90.10
24636;DHT22;12772;49.794;10.024;2023-11-19T08:27:59;12.60;90.10
24636;DHT22;12772;49.794;10.024;2023-11-19T08:32:02;12.60;90.10
24636;DHT22;12772;49.794;10.024;2023-11-19T08:36:04;12.60;90.10
24636;DHT22;12772;49.794;10.024;2023-11-19T08:40:07;12.70;90.30
24636;DHT22;12772;49.794;10.024;2023-11-19T08:44:10;12.70;90.50
24636;DHT22;12772;49.794;10.024;2023-11-19T08:48:13;12.80;90.80
24636;DHT22;12772;49.794;10.024;2023-11-19T08:52:14;12.80;91.00
24636;DHT22;12772;49.794;10.024;2023-11-19T08:56:18;12.90;91.30
24636;DHT22;12772;49.794;10.024;2023-11-19T09:00:20;13.00;91.30
24636;DHT22;12772;49.794;10.024;2023-11-19T09:04:22;13.10;91.20
24636;DHT22;12772;49.794;10.024;2023-11-19T09:08:24;13.20;91.10
24636;DHT22;12772;49.794;10.024;2023-11-19T09:12:26;13.30;91.20
24636;DHT22;12772;49.794;10.024;2023-11-19T09:16:28;13.40;91.30
24636;DHT22;12772;49.794;10.024;2023-11-19T09:22:57;13.60;91.00
24636;DHT22;12772;49.794;10.024;2023-11-19T09:26:59;14.00;91.60
24636;DHT22;12772;49.794;10.024;2023-11-19T09:31:01;14.30;90.20
24636;DHT22;12772;49.794;10.024;2023-11-19T09:35:05;14.40;89.30
24636;DHT22;12772;49.794;10.024;2023-11-19T09:39:07;14.60;87.20
24636;DHT22;12772;49.794;10.024;2023-11-19T09:43:09;14.70;86.50
24636;DHT22;12772;49.794;10.024;2023-11-19T09:47:14;14.80;85.30
24636;DHT22;12772;49.794;10.024;2023-11-19T09:51:16;15.00;84.20
24636;DHT22;12772;49.794;10.024;2023-11-19T09:55:18;15.10;82.70
24636;DHT22;12772;49.794;10.024;2023-11-19T09:59:21;15.20;80.40
24636;DHT22;12772;49.794;10.024;2023-11-19T10:03:23;15.20;79.20
24636;DHT22;12772;49.794;10.024;2023-11-19T10:07:26;15.30;79.30
24636;DHT22;12772;49.794;10.024;2023-11-19T10:11:28;15.30;78.80
24636;DHT22;12772;49.794;10.024;2023-11-19T10:15:36;15.30;77.90
24636;DHT22;12772;49.794;10.024;2023-11-19T10:19:40;15.30;77.30
24636;DHT22;12772;49.794;10.024;2023-11-19T10:23:55;15.30;77.20
24636;DHT22;12772;49.794;10.024;2023-11-19T10:27:57;15.30;76.60
24636;DHT22;12772;49.794;10.024;2023-11-19T10:31:59;15.20;76.60
24636;DHT22;12772;49.794;10.024;2023-11-19T10:36:01;15.20;76.60
24636;DHT22;12772;49.794;10.024;2023-11-19T10:40:04;15.20;76.50
24636;DHT22;12772;49.794;10.024;2023-11-19T10:44:06;15.10;76.60
24636;DHT22;12772;49.794;10.024;2023-11-19T10:48:10;15.00;76.50
24636;DHT22;12772;49.794;10.024;2023-11-19T10:52:19;15.00;76.60
24636;DHT22;12772;49.794;10.024;2023-11-19T10:56:25;14.90;77.10
24636;DHT22;12772;49.794;10.024;2023-11-19T11:00:40;14.90;77.10
24636;DHT22;12772;49.794;10.024;2023-11-19T11:04:44;14.90;77.50
24636;DHT22;12772;49.794;10.024;2023-11-19T11:08:49;14.90;77.10
24636;DHT22;12772;49.794;10.024;2023-11-19T11:12:52;15.00;77.10
24636;DHT22;12772;49.794;10.024;2023-11-19T11:16:59;14.90;76.90
24636;DHT22;12772;49.794;10.024;2023-11-19T11:21:14;15.00;77.20
24636;DHT22;12772;49.794;10.024;2023-11-19T11:25:24;14.90;77.20
24636;DHT22;12772;49.794;10.024;2023-11-19T11:34:24;14.80;77.80
24636;DHT22;12772;49.794;10.024;2023-11-19T11:38:30;14.70;77.80
24636;DHT22;12772;49.794;10.024;2023-11-19T11:42:36;14.70;78.00
24636;DHT22;12772;49.794;10.024;2023-11-19T11:50:55;14.90;78.90
24636;DHT22;12772;49.794;10.024;2023-11-19T11:55:04;15.10;79.10
24636;DHT22;12772;49.794;10.024;2023-11-19T11:59:18;15.30;79.20
24636;DHT22;12772;49.794;10.024;2023-11-19T12:03:21;15.40;77.40
24636;DHT22;12772;49.794;10.024;2023-11-19T12:07:24;15.50;75.90
24636;DHT22;12772;49.794;10.024;2023-11-19T12:11:28;15.50;74.80
24636;DHT22;12772;49.794;10.024;2023-11-19T12:15:33;15.50;73.60
24636;DHT22;12772;49.794;10.024;2023-11-19T12:19:55;15.50;73.60
24636;DHT22;12772;49.794;10.024;2023-11-19T12:24:00;15.50;73.50
24636;DHT22;12772;49.794;10.024;2023-11-19T12:28:17;15.40;73.40
24636;DHT22;12772;49.794;10.024;2023-11-19T12:32:19;15.40;73.50
24636;DHT22;12772;49.794;10.024;2023-11-19T12:36:21;15.40;73.30
24636;DHT22;12772;49.794;10.024;2023-11-19T12:40:25;15.50;73.60
24636;DHT22;12772;49.794;10.024;2023-11-19T12:44:29;15.60;71.50
24636;DHT22;12772;49.794;10.024;2023-11-19T12:48:31;15.90;71.30
24636;DHT22;12772;49.794;10.024;2023-11-19T12:52:35;16.10;70.20
24636;DHT22;12772;49.794;10.024;2023-11-19T12:56:38;16.20;68.20
24636;DHT22;12772;49.794;10.024;2023-11-19T13:00:42;16.20;66.40
24636;DHT22;12772;49.794;10.024;2023-11-19T13:04:44;16.20;64.80
24636;DHT22;12772;49.794;10.024;2023-11-19T13:08:48;16.10;64.40
24636;DHT22;12772;49.794;10.024;2023-11-19T13:13:06;16.00;64.00
24636;DHT22;12772;49.794;10.024;2023-11-19T13:17:09;16.00;64.20
24636;DHT22;12772;49.794;10.024;2023-11-19T13:21:10;16.00;64.50
24636;DHT22;12772;49.794;10.024;2023-11-19T13:25:12;16.00;63.90
24636;DHT22;12772;49.794;10.024;2023-11-19T13:29:14;16.00;63.30
24636;DHT22;12772;49.794;10.024;2023-11-19T13:33:16;15.90;62.70
24636;DHT22;12772;49.794;10.024;2023-11-19T13:37:18;16.00;62.60
24636;DHT22;12772;49.794;10.024;2023-11-19T13:41:20;16.00;62.60
24636;DHT22;12772;49.794;10.024;2023-11-19T13:45:22;16.00;62.60
24636;DHT22;12772;49.794;10.024;2023-11-19T13:49:24;16.00;62.60
24636;DHT22;12772;49.794;10.024;2023-11-19T13:53:27;15.90;62.50
24636;DHT22;12772;49.794;10.024;2023-11-19T13:57:30;15.90;62.20
24636;DHT22;12772;49.794;10.024;2023-11-19T14:01:33;15.80;60.70
24636;DHT22;12772;49.794;10.024;2023-11-19T14:05:35;15.80;60.80
24636;DHT22;12772;49.794;10.024;2023-11-19T14:09:37;15.70;60.00
24636;DHT22;12772;49.794;10.024;2023-11-19T14:13:39;15.70;59.30
24636;DHT22;12772;49.794;10.024;2023-11-19T14:17:41;15.60;57.70
24636;DHT22;12772;49.794;10.024;2023-11-19T14:21:43;15.50;56.20
24636;DHT22;12772;49.794;10.024;2023-11-19T14:25:45;15.40;56.60
24636;DHT22;12772;49.794;10.024;2023-11-19T14:29:48;15.40;56.70
24636;DHT22;12772;49.794;10.024;2023-11-19T14:33:50;15.30;56.10
24636;DHT22;12772;49.794;10.024;2023-11-19T14:37:52;15.30;56.50
24636;DHT22;12772;49.794;10.024;2023-11-19T14:41:54;15.20;56.50
24636;DHT22;12772;49.794;10.024;2023-11-19T14:45:58;15.20;56.90
24636;DHT22;12772;49.794;10.024;2023-11-19T14:50:00;15.20;57.10
24636;DHT22;12772;49.794;10.024;2023-11-19T14:54:04;15.10;56.90
24636;DHT22;12772;49.794;10.024;2023-11-19T14:58:06;15.10;56.70
24636;DHT22;12772;49.794;10.024;2023-11-19T15:02:08;15.10;57.10
24636;DHT22;12772;49.794;10.024;2023-11-19T15:06:11;15.10;56.60
24636;DHT22;12772;49.794;10.024;2023-11-19T15:10:13;15.10;56.80
24636;DHT22;12772;49.794;10.024;2023-11-19T15:14:15;15.10;56.60
24636;DHT22;12772;49.794;10.024;2023-11-19T15:18:19;15.00;56.50
24636;DHT22;12772;49.794;10.024;2023-11-19T15:22:21;15.00;56.90
24636;DHT22;12772;49.794;10.024;2023-11-19T15:26:23;15.00;56.00
24636;DHT22;12772;49.794;10.024;2023-11-19T15:30:26;15.00;55.80
24636;DHT22;12772;49.794;10.024;2023-11-19T15:34:28;15.00;55.40
24636;DHT22;12772;49.794;10.024;2023-11-19T15:38:30;14.90;55.20
24636;DHT22;12772;49.794;10.024;2023-11-19T15:42:32;14.90;55.00
24636;DHT22;12772;49.794;10.024;2023-11-19T15:46:34;14.90;55.10
24636;DHT22;12772;49.794;10.024;2023-11-19T15:50:36;14.80;55.10
24636;DHT22;12772;49.794;10.024;2023-11-19T15:54:38;14.80;55.50
24636;DHT22;12772;49.794;10.024;2023-11-19T15:58:41;14.70;55.50
24636;DHT22;12772;49.794;10.024;2023-11-19T16:02:43;14.70;56.00
24636;DHT22;12772;49.794;10.024;2023-11-19T16:06:45;14.60;56.10
24636;DHT22;12772;49.794;10.024;2023-11-19T16:10:47;14.60;56.30
24636;DHT22;12772;49.794;10.024;2023-11-19T16:14:50;14.50;56.50
24636;DHT22;12772;49.794;10.024;2023-11-19T16:18:52;14.50;56.80
24636;DHT22;12772;49.794;10.024;2023-11-19T16:22:53;14.50;56.70
24636;DHT22;12772;49.794;10.024;2023-11-19T16:26:55;14.40;56.40
24636;DHT22;12772;49.794;10.024;2023-11-19T16:30:58;14.40;56.10
24636;DHT22;12772;49.794;10.024;2023-11-19T16:35:00;14.30;56.20
24636;DHT22;12772;49.794;10.024;2023-11-19T16:39:02;14.30;56.20
24636;DHT22;12772;49.794;10.024;2023-11-19T16:43:05;14.30;56.70
24636;DHT22;12772;49.794;10.024;2023-11-19T16:47:07;14.30;56.50
24636;DHT22;12772;49.794;10.024;2023-11-19T16:51:13;14.30;56.50
24636;DHT22;12772;49.794;10.024;2023-11-19T16:55:15;14.20;56.40
24636;DHT22;12772;49.794;10.024;2023-11-19T16:59:17;14.20;56.20
24636;DHT22;12772;49.794;10.024;2023-11-19T17:03:19;14.20;56.50
24636;DHT22;12772;49.794;10.024;2023-11-19T17:07:22;14.10;56.40
24636;DHT22;12772;49.794;10.024;2023-11-19T17:11:26;14.10;56.30
24636;DHT22;12772;49.794;10.024;2023-11-19T17:15:28;14.10;56.30
24636;DHT22;12772;49.794;10.024;2023-11-19T17:19:30;14.10;56.40
24636;DHT22;12772;49.794;10.024;2023-11-19T17:23:32;14.20;56.20
24636;DHT22;12772;49.794;10.024;2023-11-19T17:27:34;14.30;56.00
24636;DHT22;12772;49.794;10.024;2023-11-19T17:31:36;14.20;55.70
24636;DHT22;12772;49.794;10.024;2023-11-19T17:35:38;14.20;55.90
24636;DHT22;12772;49.794;10.024;2023-11-19T17:39:41;14.20;55.80
24636;DHT22;12772;49.794;10.024;2023-11-19T17:43:43;14.10;56.00
24636;DHT22;12772;49.794;10.024;2023-11-19T17:47:46;14.10;56.10
24636;DHT22;12772;49.794;10.024;2023-11-19T17:51:49;14.10;56.10
24636;DHT22;12772;49.794;10.024;2023-11-19T17:55:51;14.00;56.10
24636;DHT22;12772;49.794;10.024;2023-11-19T17:59:55;14.00;55.80
24636;DHT22;12772;49.794;10.024;2023-11-19T18:03:57;13.90;55.90
24636;DHT22;12772;49.794;10.024;2023-11-19T18:08:00;13.90;55.80
24636;DHT22;12772;49.794;10.024;2023-11-19T18:12:02;13.80;55.60
24636;DHT22;12772;49.794;10.024;2023-11-19T18:16:05;13.80;55.60
24636;DHT22;12772;49.794;10.024;2023-11-19T18:20:08;13.70;55.50
24636;DHT22;12772;49.794;10.024;2023-11-19T18:24:12;13.70;55.80
24636;DHT22;12772;49.794;10.024;2023-11-19T18:28:16;13.60;55.50
24636;DHT22;12772;49.794;10.024;2023-11-19T18:32:20;13.50;55.80
24636;DHT22;12772;49.794;10.024;2023-11-19T18:36:22;13.50;55.70
24636;DHT22;12772;49.794;10.024;2023-11-19T18:40:24;13.50;55.80
24636;DHT22;12772;49.794;10.024;2023-11-19T18:44:26;13.40;55.50
24636;DHT22;12772;49.794;10.024;2023-11-19T18:48:28;13.40;55.90
24636;DHT22;12772;49.794;10.024;2023-11-19T18:52:30;13.40;56.20
24636;DHT22;12772;49.794;10.024;2023-11-19T18:56:32;13.40;56.00
24636;DHT22;12772;49.794;10.024;2023-11-19T19:00:34;13.30;56.00
24636;DHT22;12772;49.794;10.024;2023-11-19T19:04:36;13.30;56.10
24636;DHT22;12772;49.794;10.024;2023-11-19T19:08:38;13.20;56.00
24636;DHT22;12772;49.794;10.024;2023-11-19T19:12:43;13.20;56.20
24636;DHT22;12772;49.794;10.024;2023-11-19T19:16:44;13.20;56.60
24636;DHT22;12772;49.794;10.024;2023-11-19T19:20:46;13.30;57.10
24636;DHT22;12772;49.794;10.024;2023-11-19T19:24:48;13.30;57.50
24636;DHT22;12772;49.794;10.024;2023-11-19T19:28:51;13.20;58.50
24636;DHT22;12772;49.794;10.024;2023-11-19T19:32:53;13.20;58.00
24636;DHT22;12772;49.794;10.024;2023-11-19T19:36:55;13.20;58.20
24636;DHT22;12772;49.794;10.024;2023-11-19T19:40:58;13.20;58.20
24636;DHT22;12772;49.794;10.024;2023-11-19T19:45:05;13.20;58.00
24636;DHT22;12772;49.794;10.024;2023-11-19T19:49:10;13.20;57.80
24636;DHT22;12772;49.794;10.024;2023-11-19T19:53:12;13.20;57.30
24636;DHT22;12772;49.794;10.024;2023-11-19T19:57:14;13.20;57.20
24636;DHT22;12772;49.794;10.024;2023-11-19T20:01:17;13.20;57.20
24636;DHT22;12772;49.794;10.024;2023-11-19T20:05:19;13.20;56.70
24636;DHT22;12772;49.794;10.024;2023-11-19T20:09:21;13.20;56.30
24636;DHT22;12772;49.794;10.024;2023-11-19T20:13:23;13.20;56.20
24636;DHT22;12772;49.794;10.024;2023-11-19T20:17:27;13.10;56.00
24636;DHT22;12772;49.794;10.024;2023-11-19T20:21:29;13.10;56.00
24636;DHT22;12772;49.794;10.024;2023-11-19T20:25:32;13.10;55.90
24636;DHT22;12772;49.794;10.024;2023-11-19T20:29:34;13.10;56.00
24636;DHT22;12772;49.794;10.024;2023-11-19T20:33:36;13.10;55.90
24636;DHT22;12772;49.794;10.024;2023-11-19T20:37:39;13.00;55.70
24636;DHT22;12772;49.794;10.024;2023-11-19T20:41:42;13.00;55.70
24636;DHT22;12772;49.794;10.024;2023-11-19T20:45:44;12.90;55.60
24636;DHT22;12772;49.794;10.024;2023-11-19T20:49:47;12.90;55.90
24636;DHT22;12772;49.794;10.024;2023-11-19T20:53:49;12.90;55.80
24636;DHT22;12772;49.794;10.024;2023-11-19T20:57:51;12.90;55.70
24636;DHT22;12772;49.794;10.024;2023-11-19T21:01:55;12.90;56.00
24636;DHT22;12772;49.794;10.024;2023-11-19T21:05:57;13.00;56.00
24636;DHT22;12772;49.794;10.024;2023-11-19T21:09:59;13.10;55.70
24636;DHT22;12772;49.794;10.024;2023-11-19T21:14:01;13.10;55.60
24636;DHT22;12772;49.794;10.024;2023-11-19T21:18:04;13.10;55.50
24636;DHT22;12772;49.794;10.024;2023-11-19T21:22:06;13.20;55.70
24636;DHT22;12772;49.794;10.024;2023-11-19T21:26:08;13.10;56.20
24636;DHT22;12772;49.794;10.024;2023-11-19T21:30:10;13.20;55.60
24636;DHT22;12772;49.794;10.024;2023-11-19T21:34:13;13.20;55.60
24636;DHT22;12772;49.794;10.024;2023-11-19T21:38:15;13.10;55.30
24636;DHT22;12772;49.794;10.024;2023-11-19T21:42:18;13.20;55.30
24636;DHT22;12772;49.794;10.024;2023-11-19T21:46:20;13.20;55.30
24636;DHT22;12772;49.794;10.024;2023-11-19T21:50:22;13.30;55.20
24636;DHT22;12772;49.794;10.024;2023-11-19T21:54:24;13.20;54.90
24636;DHT22;12772;49.794;10.024;2023-11-19T21:58:26;13.30;55.00
24636;DHT22;12772;49.794;10.024;2023-11-19T22:02:28;13.30;55.00
24636;DHT22;12772;49.794;10.024;2023-11-19T22:06:30;13.30;55.20
24636;DHT22;12772;49.794;10.024;2023-11-19T22:10:32;13.30;55.30
24636;DHT22;12772;49.794;10.024;2023-11-19T22:14:34;13.30;55.80
24636;DHT22;12772;49.794;10.024;2023-11-19T22:18:37;13.30;55.70
24636;DHT22;12772;49.794;10.024;2023-11-19T22:22:39;13.20;55.70
24636;DHT22;12772;49.794;10.024;2023-11-19T22:26:41;13.20;55.80
24636;DHT22;12772;49.794;10.024;2023-11-19T22:30:44;13.20;55.80
24636;DHT22;12772;49.794;10.024;2023-11-19T22:34:46;13.20;55.90
24636;DHT22;12772;49.794;10.024;2023-11-19T22:38:48;13.20;55.50
24636;DHT22;12772;49.794;10.024;2023-11-19T22:42:50;13.20;55.60
24636;DHT22;12772;49.794;10.024;2023-11-19T22:46:52;13.20;55.30
24636;DHT22;12772;49.794;10.024;2023-11-19T22:50:54;13.10;55.30
24636;DHT22;12772;49.794;10.024;2023-11-19T22:54:57;13.20;55.10
24636;DHT22;12772;49.794;10.024;2023-11-19T22:58:59;13.10;54.90
24636;DHT22;12772;49.794;10.024;2023-11-19T23:03:01;13.10;54.80
24636;DHT22;12772;49.794;10.024;2023-11-19T23:07:04;13.20;55.10
24636;DHT22;12772;49.794;10.024;2023-11-19T23:11:08;13.20;54.50
24636;DHT22;12772;49.794;10.024;2023-11-19T23:15:10;13.20;54.40
24636;DHT22;12772;49.794;10.024;2023-11-19T23:19:15;13.30;54.20
24636;DHT22;12772;49.794;10.024;2023-11-19T23:23:17;13.30;54.30
24636;DHT22;12772;49.794;10.024;2023-11-19T23:27:19;13.30;54.10
24636;DHT22;12772;49.794;10.024;2023-11-19T23:31:21;13.30;54.00
24636;DHT22;12772;49.794;10.024;2023-11-19T23:35:23;13.30;53.90
24636;DHT22;12772;49.794;10.024;2023-11-19T23:39:25;13.40;54.00
24636;DHT22;12772;49.794;10.024;2023-11-19T23:43:27;13.40;54.10
24636;DHT22;12772;49.794;10.024;2023-11-19T23:47:30;13.40;53.90
24636;DHT22;12772;49.794;10.024;2023-11-19T23:51:33;13.40;53.80
24636;DHT22;12772;49.794;10.024;2023-11-19T23:55:38;13.40;53.60
24636;DHT22;12772;49.794;10.024;2023-11-19T23:59:41;13.40;53.40
